Moose Lake, Minnesota
Current Conditions -  °F | °C
As of 2:13 PM on Monday 24 Nov 2014 (Local Time) from KMZH Reporting Station
Overcast Overcast  
Wind Chill: 10°   Ceiling: 1800
Heat Index: 23°   Visibility: 10mi
Dew Point: 16°   Wind: 16mph
Humidity: 74%   Direction: 340°NNW
Pressure: 29.47"   Gusts: 26mph
Location:  46.45°N, 92.76°W
Report Text: KMZH 242013Z AUTO 34014G23KT 312V012 10SM OVC018 M05/M09 A2947 RMK AO2
Loading
Personal Weather Stations






























Interactive Weather Map New forecast layout! Learn more

10-Day Weather Forecast

Advertisements
Track Severe Weather on mobile